createdAt,value
2024-02-11T00:01:55.867Z,14.70
2024-02-11T00:04:43.416Z,14.60
2024-02-11T00:07:29.121Z,14.60
2024-02-11T00:10:16.101Z,14.60
2024-02-11T00:13:03.039Z,14.60
2024-02-11T00:15:48.683Z,14.60
2024-02-11T00:18:34.456Z,14.60
2024-02-11T00:21:20.068Z,14.40
2024-02-11T00:24:06.072Z,14.40
2024-02-11T00:26:53.173Z,14.40
2024-02-11T00:29:39.267Z,14.50
2024-02-11T00:32:25.348Z,14.50
2024-02-11T00:35:13.801Z,14.60
2024-02-11T00:38:01.435Z,14.60
2024-02-11T00:40:47.515Z,14.60
2024-02-11T00:43:38.887Z,14.60
2024-02-11T00:46:25.053Z,14.50
2024-02-11T00:49:11.056Z,14.50
2024-02-11T00:51:56.828Z,14.50
2024-02-11T00:54:42.469Z,14.50
2024-02-11T00:57:28.019Z,14.50
2024-02-11T01:00:16.659Z,14.50
2024-02-11T01:03:02.291Z,14.40
2024-02-11T01:05:48.508Z,14.30
2024-02-11T01:08:34.523Z,14.20
2024-02-11T01:11:21.122Z,14.30
2024-02-11T01:14:08.987Z,14.30
2024-02-11T01:16:56.595Z,14.30
2024-02-11T01:19:44.759Z,14.40
2024-02-11T01:22:31.049Z,14.20
2024-02-11T01:25:21.051Z,14.10
2024-02-11T01:28:06.921Z,14.30
2024-02-11T01:30:52.705Z,14.00
2024-02-11T01:33:40.105Z,13.70
2024-02-11T01:36:26.301Z,13.80
2024-02-11T01:39:12.109Z,13.60
2024-02-11T01:41:57.596Z,13.30
2024-02-11T01:44:43.054Z,13.50
2024-02-11T01:47:30.543Z,13.40
2024-02-11T01:50:21.997Z,13.40
2024-02-11T01:53:10.373Z,13.40
2024-02-11T01:55:56.931Z,13.50
2024-02-11T01:58:44.750Z,13.50
2024-02-11T02:01:32.677Z,13.50
2024-02-11T02:04:18.579Z,13.30
2024-02-11T02:07:06.289Z,13.40
2024-02-11T02:09:54.446Z,13.30
2024-02-11T02:12:41.963Z,13.20
2024-02-11T02:15:27.760Z,13.10
2024-02-11T02:18:14.011Z,13.40
2024-02-11T02:20:59.909Z,13.40
2024-02-11T02:23:48.996Z,13.40
2024-02-11T02:26:34.395Z,13.50
2024-02-11T02:29:20.148Z,13.70
2024-02-11T02:32:06.863Z,13.60
2024-02-11T02:34:52.554Z,13.40
2024-02-11T02:37:38.756Z,13.60
2024-02-11T02:40:28.513Z,13.70
2024-02-11T02:43:14.934Z,13.80
2024-02-11T02:46:00.245Z,13.90
2024-02-11T02:48:45.901Z,13.80
2024-02-11T02:51:32.239Z,13.80
2024-02-11T02:54:17.809Z,13.80
2024-02-11T02:57:05.391Z,13.80
2024-02-11T02:59:50.775Z,13.60
2024-02-11T03:02:36.609Z,13.40
2024-02-11T03:05:24.207Z,13.20
2024-02-11T03:08:10.886Z,13.30
2024-02-11T03:10:56.700Z,13.40
2024-02-11T03:13:50.104Z,13.40
2024-02-11T03:16:36.292Z,13.50
2024-02-11T03:19:22.457Z,13.40
2024-02-11T03:22:07.911Z,13.30
2024-02-11T03:24:53.468Z,13.20
2024-02-11T03:27:48.133Z,13.10
2024-02-11T03:30:36.684Z,13.30
2024-02-11T03:33:22.552Z,13.10
2024-02-11T03:36:08.400Z,13.20
2024-02-11T03:38:53.921Z,13.40
2024-02-11T03:41:39.552Z,13.20
2024-02-11T03:44:26.037Z,13.20
2024-02-11T03:47:13.294Z,13.20
2024-02-11T03:49:59.185Z,13.40
2024-02-11T03:52:45.278Z,13.10
2024-02-11T03:55:31.101Z,13.10
2024-02-11T03:58:16.818Z,13.00
2024-02-11T04:01:02.692Z,12.90
2024-02-11T04:03:50.120Z,13.00
2024-02-11T04:06:36.269Z,13.00
2024-02-11T04:09:29.655Z,13.20
2024-02-11T04:12:17.052Z,13.30
2024-02-11T04:15:03.873Z,13.00
2024-02-11T04:17:50.782Z,13.10
2024-02-11T04:20:39.637Z,13.10
2024-02-11T04:23:26.149Z,12.70
2024-02-11T04:26:11.951Z,12.70
2024-02-11T04:29:00.853Z,12.60
2024-02-11T04:31:47.992Z,12.90
2024-02-11T04:34:33.931Z,12.80
2024-02-11T04:37:25.218Z,12.90
2024-02-11T04:40:11.896Z,12.90
2024-02-11T04:43:00.063Z,12.90
2024-02-11T04:45:45.492Z,13.00
2024-02-11T04:48:33.066Z,12.80
2024-02-11T04:51:19.087Z,12.90
2024-02-11T04:54:06.866Z,12.90
2024-02-11T04:56:54.739Z,12.70
2024-02-11T04:59:40.523Z,12.80
2024-02-11T05:02:26.972Z,13.00
2024-02-11T05:05:13.188Z,12.80
2024-02-11T05:08:01.957Z,13.00
2024-02-11T05:10:52.433Z,13.10
2024-02-11T05:13:39.056Z,13.00
2024-02-11T05:16:29.157Z,12.90
2024-02-11T05:19:16.144Z,12.70
2024-02-11T05:22:03.530Z,12.70
2024-02-11T05:24:49.422Z,12.70
2024-02-11T05:27:36.342Z,12.70
2024-02-11T05:30:23.452Z,12.70
2024-02-11T05:33:09.694Z,12.70
2024-02-11T05:35:55.518Z,12.60
2024-02-11T05:38:41.958Z,12.60
2024-02-11T05:41:27.958Z,12.80
2024-02-11T05:44:15.142Z,12.80
2024-02-11T05:47:01.356Z,12.90
2024-02-11T05:49:47.373Z,13.20
2024-02-11T05:52:36.415Z,13.10
2024-02-11T05:55:23.556Z,13.00
2024-02-11T05:58:09.659Z,13.00
2024-02-11T06:00:56.706Z,13.10
2024-02-11T06:03:43.782Z,12.90
2024-02-11T06:06:29.592Z,13.00
2024-02-11T06:09:15.248Z,13.10
2024-02-11T06:12:01.069Z,12.70
2024-02-11T06:14:46.547Z,13.20
2024-02-11T06:17:36.825Z,13.50
2024-02-11T06:20:22.935Z,13.60
2024-02-11T06:23:09.174Z,13.60
2024-02-11T06:26:03.568Z,13.70
2024-02-11T06:28:49.466Z,13.80
2024-02-11T06:31:35.623Z,13.60
2024-02-11T06:34:26.745Z,13.60
2024-02-11T06:37:12.909Z,13.20
2024-02-11T06:39:59.741Z,12.70
2024-02-11T06:42:49.467Z,12.20
2024-02-11T06:45:35.266Z,12.10
2024-02-11T06:48:21.598Z,11.90
2024-02-11T06:51:08.623Z,11.80
2024-02-11T06:53:54.124Z,11.50
2024-02-11T06:56:40.388Z,11.50
2024-02-11T06:59:26.990Z,11.40
2024-02-11T07:02:12.508Z,11.80
2024-02-11T07:04:59.218Z,11.90
2024-02-11T07:07:47.044Z,11.90
2024-02-11T07:10:32.712Z,12.00
2024-02-11T07:13:18.520Z,12.10
2024-02-11T07:16:09.220Z,12.10
2024-02-11T07:18:55.854Z,11.90
2024-02-11T07:21:42.433Z,11.50
2024-02-11T07:24:29.967Z,11.40
2024-02-11T07:27:16.158Z,11.50
2024-02-11T07:30:03.035Z,11.60
2024-02-11T07:32:48.937Z,11.60
2024-02-11T07:35:35.090Z,11.50
2024-02-11T07:38:23.199Z,11.70
2024-02-11T07:41:11.344Z,11.50
2024-02-11T07:43:57.832Z,11.50
2024-02-11T07:46:43.807Z,11.70
2024-02-11T07:49:29.888Z,11.70
2024-02-11T07:52:18.559Z,11.50
2024-02-11T07:55:05.276Z,11.40
2024-02-11T07:57:53.538Z,11.30
2024-02-11T08:00:39.923Z,11.30
2024-02-11T08:03:26.195Z,11.30
2024-02-11T08:06:12.493Z,11.80
2024-02-11T08:08:58.591Z,11.70
2024-02-11T08:11:45.728Z,11.80
2024-02-11T08:14:33.100Z,11.80
2024-02-11T08:17:19.734Z,12.00
2024-02-11T08:20:07.237Z,12.30
2024-02-11T08:22:53.543Z,12.50
2024-02-11T08:25:39.305Z,12.50
2024-02-11T08:28:25.056Z,12.60
2024-02-11T08:31:13.549Z,12.60
2024-02-11T08:33:59.650Z,12.50
2024-02-11T08:36:45.305Z,12.80
2024-02-11T08:39:30.891Z,12.80
2024-02-11T08:42:16.330Z,12.70
2024-02-11T08:45:02.215Z,12.70
2024-02-11T08:47:49.536Z,12.60
2024-02-11T08:50:35.426Z,12.50
2024-02-11T08:53:21.060Z,12.30
2024-02-11T08:56:11.296Z,12.40
2024-02-11T08:58:58.001Z,12.50
2024-02-11T09:01:51.532Z,12.50
2024-02-11T09:04:39.432Z,12.50
2024-02-11T09:07:25.831Z,12.70
2024-02-11T09:10:15.419Z,12.90
2024-02-11T09:13:01.424Z,13.00
2024-02-11T09:15:47.063Z,13.10
2024-02-11T09:18:33.069Z,13.20
2024-02-11T09:21:20.513Z,13.00
2024-02-11T09:24:06.718Z,13.00
2024-02-11T09:26:53.042Z,12.90
2024-02-11T09:29:38.879Z,13.10
2024-02-11T09:32:26.229Z,13.00
2024-02-11T09:35:12.932Z,13.20
2024-02-11T09:38:00.330Z,13.30
2024-02-11T09:40:46.620Z,13.20
2024-02-11T09:43:32.868Z,13.20
2024-02-11T09:46:19.530Z,13.20
2024-02-11T09:49:11.180Z,13.20
2024-02-11T09:51:59.560Z,13.40
2024-02-11T09:54:49.190Z,13.50
2024-02-11T09:57:34.950Z,13.80
2024-02-11T10:00:21.559Z,13.70
2024-02-11T10:03:08.952Z,13.80
2024-02-11T10:05:57.218Z,14.00
2024-02-11T10:08:42.980Z,14.10
2024-02-11T10:11:31.509Z,14.10
2024-02-11T10:14:18.620Z,14.10
2024-02-11T10:17:07.415Z,14.20
2024-02-11T10:19:53.692Z,14.60
2024-02-11T10:22:39.405Z,14.80
2024-02-11T10:25:27.893Z,15.00
2024-02-11T10:28:15.354Z,14.60
2024-02-11T10:31:02.690Z,14.60
2024-02-11T10:33:49.022Z,14.60
2024-02-11T10:36:36.585Z,14.70
2024-02-11T10:39:23.959Z,14.50
2024-02-11T10:42:12.184Z,14.70
2024-02-11T10:45:00.120Z,14.40
2024-02-11T10:47:45.863Z,14.70
2024-02-11T10:50:33.311Z,14.80
2024-02-11T10:53:22.804Z,14.50
2024-02-11T10:56:11.322Z,14.20
2024-02-11T10:59:06.171Z,14.30
2024-02-11T11:01:56.999Z,13.90
2024-02-11T11:04:45.680Z,13.90
2024-02-11T11:07:39.095Z,14.00
2024-02-11T11:10:30.420Z,13.80
2024-02-11T11:13:26.151Z,13.60
2024-02-11T11:16:12.893Z,13.80
2024-02-11T11:19:04.303Z,14.00
2024-02-11T11:21:56.052Z,14.00
2024-02-11T11:24:41.960Z,13.80
2024-02-11T11:27:28.081Z,13.90
2024-02-11T11:30:15.252Z,14.00
2024-02-11T11:33:04.533Z,14.20
2024-02-11T11:35:59.079Z,14.50
2024-02-11T11:38:44.901Z,14.60
2024-02-11T11:41:30.668Z,14.80
2024-02-11T11:44:24.089Z,14.80
2024-02-11T11:47:10.361Z,14.50
2024-02-11T11:49:56.552Z,14.50
2024-02-11T11:52:44.177Z,14.60
2024-02-11T11:55:30.209Z,14.80
2024-02-11T11:58:23.056Z,15.10
2024-02-11T12:01:10.443Z,14.60
2024-02-11T12:03:56.582Z,14.10
2024-02-11T12:06:42.287Z,14.10
2024-02-11T12:09:29.969Z,14.00
2024-02-11T12:12:16.052Z,13.80
2024-02-11T12:15:04.757Z,14.10
2024-02-11T12:17:51.910Z,14.30
2024-02-11T12:20:40.392Z,14.50
2024-02-11T12:23:26.286Z,14.70
2024-02-11T12:26:21.089Z,14.70
2024-02-11T12:29:07.666Z,14.70
2024-02-11T12:31:53.833Z,14.70
2024-02-11T12:34:40.007Z,14.60
2024-02-11T12:37:29.687Z,14.40
2024-02-11T12:40:19.662Z,14.70
2024-02-11T12:43:10.366Z,14.80
2024-02-11T12:45:57.178Z,14.90
2024-02-11T12:48:44.340Z,15.00
2024-02-11T12:51:31.082Z,15.00
2024-02-11T12:54:17.515Z,15.00
2024-02-11T12:57:06.244Z,15.10
2024-02-11T12:59:53.265Z,14.70
2024-02-11T13:02:38.739Z,14.80
2024-02-11T13:05:26.967Z,15.10
2024-02-11T13:08:14.954Z,15.20
2024-02-11T13:11:01.689Z,15.40
2024-02-11T13:13:49.838Z,15.50
2024-02-11T13:16:37.083Z,15.50
2024-02-11T13:19:24.014Z,15.60
2024-02-11T13:22:13.982Z,15.60
2024-02-11T13:25:00.277Z,15.40
2024-02-11T13:27:46.250Z,15.60
2024-02-11T13:30:32.543Z,15.60
2024-02-11T13:33:20.075Z,15.60
2024-02-11T13:36:11.558Z,15.80
2024-02-11T13:38:57.917Z,16.00
2024-02-11T13:41:43.750Z,16.00
2024-02-11T13:44:30.698Z,16.00
2024-02-11T13:47:17.166Z,16.00
2024-02-11T13:50:17.264Z,16.30
2024-02-11T13:53:04.112Z,16.30
2024-02-11T13:55:50.322Z,16.40
2024-02-11T13:58:43.147Z,16.70
2024-02-11T14:01:32.099Z,17.00
2024-02-11T14:04:18.286Z,17.20
2024-02-11T14:07:07.064Z,17.10
2024-02-11T14:09:54.374Z,17.20
2024-02-11T14:12:42.750Z,16.90
2024-02-11T14:15:30.831Z,16.40
2024-02-11T14:18:18.207Z,16.50
2024-02-11T14:21:04.499Z,16.40
2024-02-11T14:23:52.488Z,16.60
2024-02-11T14:26:38.227Z,16.50
2024-02-11T14:29:24.179Z,16.50
2024-02-11T14:32:10.051Z,16.40
2024-02-11T14:34:58.332Z,16.50
2024-02-11T14:37:44.576Z,16.50
2024-02-11T14:40:32.339Z,16.30
2024-02-11T14:43:19.020Z,16.10
2024-02-11T14:46:07.034Z,16.10
2024-02-11T14:48:53.080Z,16.10
2024-02-11T14:51:40.962Z,15.60
2024-02-11T14:54:29.846Z,15.50
2024-02-11T14:57:17.053Z,15.40
2024-02-11T15:00:03.841Z,15.30
2024-02-11T15:02:53.065Z,15.20
2024-02-11T15:05:39.472Z,15.40
2024-02-11T15:08:25.180Z,15.40
2024-02-11T15:11:12.910Z,15.60
2024-02-11T15:14:01.710Z,15.50
2024-02-11T15:16:47.501Z,15.60
2024-02-11T15:19:36.349Z,15.30
2024-02-11T15:22:22.691Z,15.30
2024-02-11T15:25:09.420Z,15.40
2024-02-11T15:27:55.358Z,15.30
2024-02-11T15:30:42.958Z,15.30
2024-02-11T15:33:28.712Z,15.30
2024-02-11T15:36:15.333Z,15.20
2024-02-11T15:39:02.921Z,15.30
2024-02-11T15:41:48.747Z,15.20
2024-02-11T15:44:34.772Z,15.20
2024-02-11T15:47:22.453Z,15.30
2024-02-11T15:50:09.273Z,15.30
2024-02-11T15:52:55.504Z,15.40
2024-02-11T15:55:41.463Z,15.30
2024-02-11T15:58:27.096Z,15.30
2024-02-11T16:01:12.635Z,15.30
2024-02-11T16:04:01.871Z,15.40
2024-02-11T16:06:47.787Z,15.40
2024-02-11T16:09:33.756Z,15.10
2024-02-11T16:12:19.528Z,15.00
2024-02-11T16:15:06.978Z,14.80
2024-02-11T16:17:53.529Z,14.80
2024-02-11T16:20:42.195Z,15.00
2024-02-11T16:23:29.473Z,14.90
2024-02-11T16:26:17.311Z,14.70
2024-02-11T16:29:04.644Z,14.60
2024-02-11T16:31:50.586Z,14.80
2024-02-11T16:34:36.568Z,14.80
2024-02-11T16:37:25.619Z,14.50
2024-02-11T16:40:15.190Z,14.40
2024-02-11T16:43:00.753Z,14.40
2024-02-11T16:45:48.423Z,14.50
2024-02-11T16:48:37.141Z,14.40
2024-02-11T16:51:23.781Z,14.30
2024-02-11T16:54:10.867Z,14.60
2024-02-11T16:56:59.289Z,14.40
2024-02-11T16:59:45.349Z,14.40
2024-02-11T17:02:31.976Z,14.30
2024-02-11T17:05:18.415Z,14.30
2024-02-11T17:08:04.663Z,14.30
2024-02-11T17:10:54.679Z,14.20
2024-02-11T17:13:40.540Z,14.20
2024-02-11T17:16:26.809Z,14.10
2024-02-11T17:19:16.921Z,14.00
2024-02-11T17:22:04.314Z,14.30
2024-02-11T17:24:49.861Z,14.20
2024-02-11T17:27:39.115Z,14.10
2024-02-11T17:30:26.051Z,14.10
2024-02-11T17:33:12.564Z,14.10
2024-02-11T17:35:59.628Z,14.00
2024-02-11T17:38:46.042Z,14.00
2024-02-11T17:41:33.284Z,13.90
2024-02-11T17:44:22.290Z,13.90
2024-02-11T17:47:08.879Z,13.90
2024-02-11T17:49:54.968Z,13.80
2024-02-11T17:52:41.684Z,13.80
2024-02-11T17:55:29.266Z,13.70
2024-02-11T17:58:15.099Z,13.60
2024-02-11T18:01:02.263Z,13.60
2024-02-11T18:03:48.785Z,13.80
2024-02-11T18:06:36.542Z,13.90
2024-02-11T18:09:22.383Z,13.80
2024-02-11T18:12:08.835Z,13.80
2024-02-11T18:14:54.644Z,13.60
2024-02-11T18:17:42.680Z,13.80
2024-02-11T18:20:28.814Z,13.70
2024-02-11T18:23:16.711Z,13.70
2024-02-11T18:26:08.891Z,13.70
2024-02-11T18:28:57.698Z,13.50
2024-02-11T18:31:44.116Z,13.40
2024-02-11T18:34:31.290Z,13.50
2024-02-11T18:37:20.686Z,13.60
2024-02-11T18:40:10.557Z,13.50
2024-02-11T18:42:56.840Z,13.50
2024-02-11T18:45:44.299Z,13.60
2024-02-11T18:48:30.461Z,13.60
2024-02-11T18:51:17.800Z,13.70
2024-02-11T18:54:03.518Z,13.70
2024-02-11T18:56:50.554Z,13.80
2024-02-11T18:59:36.245Z,13.50
2024-02-11T19:02:23.582Z,13.40
2024-02-11T19:05:11.024Z,13.50
2024-02-11T19:08:02.125Z,13.50
2024-02-11T19:10:48.086Z,13.50
2024-02-11T19:13:34.161Z,13.50
2024-02-11T19:16:20.712Z,13.50
2024-02-11T19:19:06.553Z,13.40
2024-02-11T19:21:52.713Z,13.40
2024-02-11T19:24:41.925Z,13.50
2024-02-11T19:27:27.744Z,13.50
2024-02-11T19:30:15.338Z,13.40
2024-02-11T19:33:02.451Z,13.30
2024-02-11T19:35:48.341Z,13.40
2024-02-11T19:38:35.006Z,13.40
2024-02-11T19:41:32.655Z,13.40
2024-02-11T19:44:18.329Z,13.40
2024-02-11T19:47:07.188Z,13.40
2024-02-11T19:49:55.411Z,13.40
2024-02-11T19:52:41.410Z,13.30
2024-02-11T19:55:27.437Z,13.30
2024-02-11T19:58:16.395Z,13.20
2024-02-11T20:01:05.295Z,13.10
2024-02-11T20:03:51.569Z,13.20
2024-02-11T20:06:37.792Z,13.20
2024-02-11T20:09:23.772Z,13.10
2024-02-11T20:12:10.150Z,13.30
2024-02-11T20:14:57.406Z,13.30
2024-02-11T20:17:44.211Z,13.20
2024-02-11T20:20:30.969Z,13.10
2024-02-11T20:23:17.865Z,13.30
2024-02-11T20:26:05.539Z,13.40
2024-02-11T20:28:51.363Z,13.50
2024-02-11T20:31:38.783Z,13.70
2024-02-11T20:34:24.394Z,13.30
2024-02-11T20:37:18.113Z,13.30
2024-02-11T20:40:06.265Z,13.30
2024-02-11T20:42:52.306Z,13.10
2024-02-11T20:45:38.972Z,13.00
2024-02-11T20:48:28.844Z,12.90
2024-02-11T20:51:17.472Z,12.70
2024-02-11T20:54:03.373Z,12.40
2024-02-11T20:56:49.602Z,12.50
2024-02-11T20:59:36.568Z,12.70
2024-02-11T21:02:22.403Z,12.60
2024-02-11T21:05:10.526Z,12.70
2024-02-11T21:07:56.420Z,12.60
2024-02-11T21:10:44.465Z,12.60
2024-02-11T21:13:30.685Z,12.50
2024-02-11T21:16:16.616Z,12.50
2024-02-11T21:19:03.663Z,12.40
2024-02-11T21:21:50.809Z,12.30
2024-02-11T21:24:36.470Z,12.40
2024-02-11T21:27:22.556Z,12.30
2024-02-11T21:30:09.107Z,12.40
2024-02-11T21:32:55.148Z,12.60
2024-02-11T21:35:41.073Z,12.50
2024-02-11T21:38:28.612Z,12.50
2024-02-11T21:41:19.541Z,12.50
2024-02-11T21:44:07.960Z,12.40
2024-02-11T21:46:55.027Z,12.50
2024-02-11T21:49:41.060Z,12.40
2024-02-11T21:52:27.693Z,12.30
2024-02-11T21:55:19.411Z,12.20
2024-02-11T21:58:05.577Z,12.10
2024-02-11T22:00:51.548Z,12.20
2024-02-11T22:03:37.501Z,12.00
2024-02-11T22:06:24.961Z,12.00
2024-02-11T22:09:14.725Z,12.10
2024-02-11T22:12:02.432Z,12.10
2024-02-11T22:14:48.368Z,12.30
2024-02-11T22:17:35.998Z,12.30
2024-02-11T22:20:22.662Z,12.20
2024-02-11T22:23:08.769Z,12.20
2024-02-11T22:25:54.785Z,12.40
2024-02-11T22:28:43.560Z,12.20
2024-02-11T22:31:29.816Z,12.20
2024-02-11T22:34:15.728Z,12.30
2024-02-11T22:37:02.032Z,12.30
2024-02-11T22:39:49.058Z,12.20
2024-02-11T22:42:35.492Z,12.30
2024-02-11T22:45:24.753Z,12.10
2024-02-11T22:48:10.870Z,12.10
2024-02-11T22:50:56.732Z,12.10
2024-02-11T22:53:42.185Z,12.10
2024-02-11T22:56:28.124Z,12.00
2024-02-11T22:59:13.720Z,12.00
2024-02-11T23:02:01.852Z,12.00
2024-02-11T23:04:47.877Z,12.10
2024-02-11T23:07:34.700Z,12.10
2024-02-11T23:10:24.256Z,12.00
2024-02-11T23:13:10.378Z,12.00
2024-02-11T23:15:56.261Z,11.80
2024-02-11T23:18:43.902Z,11.80
2024-02-11T23:21:29.881Z,11.70
2024-02-11T23:24:15.263Z,11.60
2024-02-11T23:27:07.307Z,11.50
2024-02-11T23:29:54.075Z,11.40
2024-02-11T23:32:40.523Z,11.40
2024-02-11T23:35:28.389Z,11.50
2024-02-11T23:38:14.650Z,11.30
2024-02-11T23:41:00.926Z,11.30
2024-02-11T23:43:46.769Z,11.20
2024-02-11T23:46:33.311Z,11.30
2024-02-11T23:49:21.957Z,11.20
2024-02-11T23:52:09.835Z,11.30
2024-02-11T23:54:56.375Z,11.30
2024-02-11T23:57:42.370Z,11.40
